Time;durP1;ratioP1;P1;durP2;ratioP2;P2;SDS_P1;SDS_P2;PMS_P1;PMS_P2;Temp;Humidity;BMP_temperature;BMP_pressure;BME280_temperature;BME280_humidity;BME280_pressure;Samples;Min_cycle;Max_cycle;Signal;HPM_P1;HPM_P2
2022/10/22 00:01:14;;;;;;;;;;;;;;;6.96;100.00;95819.16;5067026;28;19960;-71
2022/10/22 00:03:41;;;;;;;;;;;;;;;6.91;100.00;95811.13;5058563;28;19924;-72
2022/10/22 00:06:07;;;;;;;;;;;;;;;6.90;100.00;95825.09;5069341;28;19928;-71
2022/10/22 00:08:35;;;;;;;;;;;;;;;6.89;100.00;95823.47;5061164;28;19925;-71
2022/10/22 00:11:15;;;;;;;;;;;;;;;6.85;100.00;95822.22;5068487;28;20717;-72
2022/10/22 00:13:42;;;;;;;;;;;;;;;6.80;100.00;95824.56;5055067;28;19941;-71
2022/10/22 00:16:08;;;;;;;;;;;;;;;6.73;100.00;95819.31;5060288;28;20005;-71
2022/10/22 00:18:36;;;;;;;;;;;;;;;6.72;100.00;95827.25;5062481;28;20035;-71
2022/10/22 00:21:03;;;;;;;;;;;;;;;6.70;100.00;95828.25;5061873;28;19929;-72
2022/10/22 00:23:29;;;;;;;;;;;;;;;6.64;100.00;95826.38;5063153;28;20546;-72
2022/10/22 00:25:56;;;;;;;;;;;;;;;6.63;100.00;95829.97;5061386;28;20611;-72
2022/10/22 00:28:23;;;;;;;;;;;;;;;6.52;100.00;95827.84;5061413;28;19986;-72
2022/10/22 00:30:56;;;;;;;;;;;;;;;6.43;100.00;95824.53;5055705;28;19936;-70
2022/10/22 00:33:24;;;;;;;;;;;;;;;6.59;100.00;95831.31;5061158;28;19925;-71
2022/10/22 00:35:50;;;;;;;;;;;;;;;6.59;100.00;95823.53;5055531;28;19940;-69
2022/10/22 00:38:17;;;;;;;;;;;;;;;6.45;100.00;95819.19;5060064;28;19936;-71
2022/10/22 00:40:44;;;;;;;;;;;;;;;6.39;100.00;95812.13;5057544;28;20015;-70
2022/10/22 00:43:11;;;;;;;;;;;;;;;6.25;100.00;95806.81;5058709;28;19936;-71
2022/10/22 00:45:38;;;;;;;;;;;;;;;6.29;100.00;95808.03;5055479;28;20049;-70
2022/10/22 00:48:13;;;;;;;;;;;;;;;6.19;100.00;95807.50;5057717;28;20015;-70
2022/10/22 00:50:42;;;;;;;;;;;;;;;6.24;100.00;95805.19;5055732;28;19964;-70
2022/10/22 00:53:13;;;;;;;;;;;;;;;6.38;100.00;95808.75;5057901;28;19959;-71
2022/10/22 00:55:41;;;;;;;;;;;;;;;6.31;100.00;95813.84;5062340;28;19932;-71
2022/10/22 00:58:08;;;;;;;;;;;;;;;6.28;100.00;95821.16;5058010;28;20007;-70
2022/10/22 01:00:34;;;;;;;;;;;;;;;6.30;100.00;95822.59;5059028;28;19925;-69
2022/10/22 01:03:01;;;;;;;;;;;;;;;6.31;100.00;95816.44;5054976;28;19932;-70
2022/10/22 01:05:32;;;;;;;;;;;;;;;6.23;100.00;95816.53;5059379;28;20023;-70
2022/10/22 01:07:58;;;;;;;;;;;;;;;6.10;100.00;95804.22;5057108;28;19924;-70
2022/10/22 01:10:28;;;;;;;;;;;;;;;6.11;100.00;95805.03;5061286;28;20022;-71
2022/10/22 01:13:18;;;;;;;;;;;;;;;5.98;100.00;95791.91;5055034;28;19951;-71
2022/10/22 01:15:55;;;;;;;;;;;;;;;5.83;100.00;95792.66;5060381;28;19986;-70
2022/10/22 01:18:46;;;;;;;;;;;;;;;5.80;100.00;95787.88;5054590;28;20993;-71
2022/10/22 01:21:30;;;;;;;;;;;;;;;5.77;100.00;95797.75;5061025;28;19932;-71
2022/10/22 01:24:06;;;;;;;;;;;;;;;5.72;100.00;95785.34;5055928;28;20487;-71
2022/10/22 01:26:48;;;;;;;;;;;;;;;5.66;100.00;95783.47;5059485;28;19928;-71
2022/10/22 01:29:17;;;;;;;;;;;;;;;5.76;100.00;95791.75;5056019;28;20044;-71
2022/10/22 01:31:46;;;;;;;;;;;;;;;5.65;100.00;95789.63;5058574;28;19967;-71
2022/10/22 01:34:15;;;;;;;;;;;;;;;5.55;100.00;95790.69;5056237;28;19970;-71
2022/10/22 01:36:42;;;;;;;;;;;;;;;5.40;100.00;95786.44;5060156;28;19928;-71
2022/10/22 01:39:10;;;;;;;;;;;;;;;5.42;100.00;95774.16;5055237;28;19928;-71
2022/10/22 01:41:38;;;;;;;;;;;;;;;5.35;100.00;95767.13;5056680;28;19935;-70
2022/10/22 01:44:05;;;;;;;;;;;;;;;5.26;100.00;95759.63;5054309;28;19928;-70
2022/10/22 01:46:31;;;;;;;;;;;;;;;5.15;100.00;95759.06;5060810;28;19928;-70
2022/10/22 01:48:58;;;;;;;;;;;;;;;5.07;100.00;95761.69;5053783;28;19925;-71
2022/10/22 01:51:25;;;;;;;;;;;;;;;5.08;100.00;95758.16;5056263;28;19924;-70
2022/10/22 01:53:55;;;;;;;;;;;;;;;5.07;100.00;95766.84;5060661;28;19943;-72
2022/10/22 01:56:43;;;;;;;;;;;;;;;5.09;100.00;95764.91;5061379;28;20027;-72
2022/10/22 01:59:23;;;;;;;;;;;;;;;5.07;100.00;95763.47;5087423;27;19996;-72
2022/10/22 02:01:58;;;;;;;;;;;;;;;5.17;100.00;95757.09;5061862;28;19933;-72
2022/10/22 02:04:27;;;;;;;;;;;;;;;5.07;100.00;95759.09;5063736;28;19931;-71
2022/10/22 02:06:58;;;;;;;;;;;;;;;5.13;100.00;95755.84;5061474;28;20375;-72
2022/10/22 02:09:26;;;;;;;;;;;;;;;5.11;100.00;95746.66;5066796;28;20020;-72
2022/10/22 02:11:53;;;;;;;;;;;;;;;5.10;100.00;95751.03;5065076;28;20797;-72
2022/10/22 02:14:20;;;;;;;;;;;;;;;5.04;100.00;95756.91;5067624;28;19929;-72
2022/10/22 02:16:48;;;;;;;;;;;;;;;4.96;100.00;95764.69;5061630;28;19928;-71
2022/10/22 02:19:18;;;;;;;;;;;;;;;4.95;100.00;95773.41;5066576;28;19924;-71
2022/10/22 02:21:45;;;;;;;;;;;;;;;4.95;100.00;95757.91;5065068;28;19924;-72
2022/10/22 02:24:12;;;;;;;;;;;;;;;4.84;100.00;95760.91;5065181;28;19939;-71
2022/10/22 02:26:45;;;;;;;;;;;;;;;4.87;100.00;95761.34;5058670;28;20003;-72
2022/10/22 02:29:12;;;;;;;;;;;;;;;4.89;100.00;95751.66;5060483;28;19982;-72
2022/10/22 02:31:40;;;;;;;;;;;;;;;4.83;100.00;95760.09;5060903;28;20035;-73
2022/10/22 02:34:10;;;;;;;;;;;;;;;4.81;100.00;95761.22;5065814;28;19985;-72
2022/10/22 02:36:37;;;;;;;;;;;;;;;4.48;100.00;95715.00;5063517;28;19931;-71
2022/10/22 02:39:05;;;;;;;;;;;;;;;4.71;100.00;95757.09;5060989;28;19938;-72
2022/10/22 02:41:32;;;;;;;;;;;;;;;4.72;100.00;95763.88;5063422;28;20810;-71
2022/10/22 02:44:01;;;;;;;;;;;;;;;4.78;100.00;95763.19;5062924;28;19925;-71
2022/10/22 02:46:27;;;;;;;;;;;;;;;4.67;100.00;95761.00;5064968;28;20033;-71
2022/10/22 02:48:54;;;;;;;;;;;;;;;4.66;100.00;95774.88;5059610;28;21376;-71
2022/10/22 02:51:21;;;;;;;;;;;;;;;4.64;100.00;95771.66;5071506;28;19954;-72
2022/10/22 02:53:47;;;;;;;;;;;;;;;4.59;100.00;95779.09;5061508;28;19929;-72
2022/10/22 02:56:14;;;;;;;;;;;;;;;4.64;100.00;95776.81;5063907;28;20032;-71
2022/10/22 02:58:41;;;;;;;;;;;;;;;4.60;100.00;95780.72;5063018;28;20243;-72
2022/10/22 03:01:07;;;;;;;;;;;;;;;4.57;100.00;95781.06;5061216;28;19932;-72
2022/10/22 03:03:39;;;;;;;;;;;;;;;4.48;100.00;95788.03;5062983;28;19932;-72
2022/10/22 03:06:05;;;;;;;;;;;;;;;4.52;100.00;95783.34;5064487;28;20003;-72
2022/10/22 03:08:32;;;;;;;;;;;;;;;4.46;100.00;95784.03;5062163;28;19932;-72
2022/10/22 03:10:59;;;;;;;;;;;;;;;4.46;100.00;95784.81;5061642;28;19928;-72
2022/10/22 03:13:25;;;;;;;;;;;;;;;4.46;100.00;95784.03;5066301;28;19932;-72
2022/10/22 03:15:52;;;;;;;;;;;;;;;4.46;100.00;95784.81;5064268;28;20026;-72
2022/10/22 03:18:18;;;;;;;;;;;;;;;4.49;100.00;95784.50;5064832;28;19930;-72
2022/10/22 03:20:45;;;;;;;;;;;;;;;4.52;100.00;95778.19;5061834;28;19935;-71
2022/10/22 03:23:17;;;;;;;;;;;;;;;4.53;100.00;95774.63;5069943;28;19981;-71
2022/10/22 03:25:45;;;;;;;;;;;;;;;4.52;100.00;95765.28;5063752;28;19932;-72
2022/10/22 03:28:13;;;;;;;;;;;;;;;4.53;100.00;95759.16;5066542;28;20681;-72
2022/10/22 03:30:40;;;;;;;;;;;;;;;4.49;100.00;95763.06;5063782;28;20042;-72
2022/10/22 03:33:06;;;;;;;;;;;;;;;4.49;100.00;95763.06;5062529;28;19932;-71
2022/10/22 03:35:36;;;;;;;;;;;;;;;4.59;100.00;95768.78;5061106;28;20084;-72
2022/10/22 03:38:03;;;;;;;;;;;;;;;4.53;100.00;95782.38;5058631;28;19932;-72
2022/10/22 03:40:30;;;;;;;;;;;;;;;4.52;100.00;95770.44;5066341;28;19932;-72
2022/10/22 03:42:57;;;;;;;;;;;;;;;4.52;100.00;95770.44;5061774;28;19935;-72
2022/10/22 03:45:24;;;;;;;;;;;;;;;4.58;100.00;95772.34;5068961;28;19936;-71
2022/10/22 03:47:51;;;;;;;;;;;;;;;4.55;100.00;95762.38;5062420;28;19928;-72
2022/10/22 03:50:18;;;;;;;;;;;;;;;4.55;100.00;95767.53;5065397;28;19936;-72
2022/10/22 03:52:44;;;;;;;;;;;;;;;4.58;100.00;95762.03;5067139;28;19925;-71
2022/10/22 03:55:11;;;;;;;;;;;;;;;4.49;100.00;95773.38;5068446;28;20049;-71
2022/10/22 03:57:38;;;;;;;;;;;;;;;4.65;100.00;95783.59;5060654;28;19979;-73
2022/10/22 04:00:06;;;;;;;;;;;;;;;4.48;100.00;95771.75;5068401;28;20007;-72
2022/10/22 04:02:33;;;;;;;;;;;;;;;4.50;100.00;95768.06;5069940;28;20482;-72
2022/10/22 04:05:00;;;;;;;;;;;;;;;4.55;100.00;95772.69;5066428;28;19985;-72
2022/10/22 04:07:27;;;;;;;;;;;;;;;4.47;100.00;95770.97;5067757;28;19935;-72
2022/10/22 04:09:53;;;;;;;;;;;;;;;4.43;100.00;95759.38;5064847;28;19928;-72
2022/10/22 04:12:20;;;;;;;;;;;;;;;4.55;100.00;95754.63;5064774;28;19924;-71
2022/10/22 04:14:47;;;;;;;;;;;;;;;4.59;100.00;95748.97;5055211;28;19928;-71
2022/10/22 04:17:14;;;;;;;;;;;;;;;4.38;100.00;95710.88;5061459;28;19931;-72
2022/10/22 04:19:40;;;;;;;;;;;;;;;4.72;100.00;95753.56;5064085;28;19975;-72
2022/10/22 04:22:07;;;;;;;;;;;;;;;4.77;100.00;95759.00;5062318;28;19956;-71
2022/10/22 04:24:34;;;;;;;;;;;;;;;4.83;100.00;95764.47;5060230;28;19920;-72
2022/10/22 04:27:00;;;;;;;;;;;;;;;4.89;100.00;95763.78;5065393;28;19928;-72
2022/10/22 04:29:27;;;;;;;;;;;;;;;4.87;100.00;95761.34;5064918;28;19988;-71
2022/10/22 04:31:54;;;;;;;;;;;;;;;4.99;100.00;95748.84;5067525;28;19928;-72
2022/10/22 04:34:20;;;;;;;;;;;;;;;5.12;100.00;95743.91;5068190;28;19928;-72
2022/10/22 04:36:47;;;;;;;;;;;;;;;5.06;100.00;95744.63;5064958;28;20610;-72
2022/10/22 04:39:13;;;;;;;;;;;;;;;5.12;100.00;95749.06;5062181;28;19971;-71
2022/10/22 04:41:40;;;;;;;;;;;;;;;5.19;100.00;95738.06;5064467;28;19932;-72
2022/10/22 04:44:07;;;;;;;;;;;;;;;5.29;100.00;95748.94;5064906;28;20373;-72
2022/10/22 04:46:41;;;;;;;;;;;;;;;5.39;100.00;95744.31;5065395;28;19936;-71
2022/10/22 04:49:08;;;;;;;;;;;;;;;5.47;100.00;95751.19;5069644;28;19951;-71
2022/10/22 04:51:36;;;;;;;;;;;;;;;5.51;100.00;95750.66;5071864;28;21246;-70
2022/10/22 04:54:02;;;;;;;;;;;;;;;5.49;100.00;95750.06;5077035;28;19968;-72
2022/10/22 04:56:30;;;;;;;;;;;;;;;5.62;100.00;95753.78;5061634;28;20616;-72
2022/10/22 04:58:58;;;;;;;;;;;;;;;5.71;100.00;95753.53;5061294;28;19936;-73
2022/10/22 05:01:35;;;;;;;;;;;;;;;5.78;100.00;95753.63;5069124;28;20553;-70
2022/10/22 05:04:10;;;;;;;;;;;;;;;5.85;100.00;95744.19;5066270;28;19964;-72
2022/10/22 05:06:37;;;;;;;;;;;;;;;5.98;100.00;95747.94;5069177;28;20023;-71
2022/10/22 05:09:05;;;;;;;;;;;;;;;6.03;100.00;95755.97;5067101;28;19978;-70
2022/10/22 05:11:33;;;;;;;;;;;;;;;5.98;100.00;95758.28;5070156;28;19932;-71
2022/10/22 05:14:04;;;;;;;;;;;;;;;6.09;100.00;95755.25;5066919;28;19928;-72
2022/10/22 05:16:31;;;;;;;;;;;;;;;6.06;100.00;95755.63;5066395;28;19979;-70
2022/10/22 05:18:59;;;;;;;;;;;;;;;6.03;100.00;95766.31;5063333;28;19979;-70
2022/10/22 05:21:27;;;;;;;;;;;;;;;5.79;100.00;95781.06;5062441;28;20473;-69
2022/10/22 05:23:54;;;;;;;;;;;;;;;5.60;100.00;95755.75;5058965;28;19928;-70
2022/10/22 05:26:22;;;;;;;;;;;;;;;5.87;100.00;95780.19;5065178;28;20435;-68
2022/10/22 05:28:49;;;;;;;;;;;;;;;5.71;100.00;95783.75;5062960;28;19924;-71
2022/10/22 05:31:16;;;;;;;;;;;;;;;5.70;100.00;95779.56;5066095;28;20031;-70
2022/10/22 05:33:43;;;;;;;;;;;;;;;5.91;100.00;95769.31;5058141;28;19984;-70
2022/10/22 05:36:12;;;;;;;;;;;;;;;5.96;100.00;95770.59;5064329;28;19939;-71
2022/10/22 05:38:38;;;;;;;;;;;;;;;5.86;100.00;95781.97;5061404;28;20425;-69
2022/10/22 05:41:09;;;;;;;;;;;;;;;5.58;100.00;95783.56;5065442;28;19962;-69
2022/10/22 05:43:36;;;;;;;;;;;;;;;5.69;100.00;95789.09;5069754;28;19970;-70
2022/10/22 05:46:05;;;;;;;;;;;;;;;5.72;100.00;95790.53;5063859;28;20581;-70
2022/10/22 05:48:31;;;;;;;;;;;;;;;5.45;100.00;95784.94;5062700;28;19989;-69
2022/10/22 05:51:04;;;;;;;;;;;;;;;5.60;100.00;95782.41;5057305;28;20089;-71
2022/10/22 05:53:35;;;;;;;;;;;;;;;5.78;100.00;95783.84;5060182;28;19929;-70
2022/10/22 05:56:02;;;;;;;;;;;;;;;5.88;100.00;95785.19;5057971;28;19928;-70
2022/10/22 05:58:29;;;;;;;;;;;;;;;6.03;100.00;95787.00;5062231;28;19956;-69
2022/10/22 06:01:22;;;;;;;;;;;;;;;6.07;100.00;95788.25;5056932;28;20017;-70
2022/10/22 06:03:51;;;;;;;;;;;;;;;6.29;100.00;95789.13;5059158;28;19939;-69
2022/10/22 06:06:18;;;;;;;;;;;;;;;6.08;100.00;95784.69;5054981;28;19959;-70
2022/10/22 06:08:45;;;;;;;;;;;;;;;6.21;100.00;95790.03;5059881;28;20356;-70
2022/10/22 06:11:13;;;;;;;;;;;;;;;5.99;100.00;95790.94;5057099;28;20687;-69
2022/10/22 06:13:39;;;;;;;;;;;;;;;6.02;100.00;95783.63;5057702;28;19924;-69
2022/10/22 06:16:06;;;;;;;;;;;;;;;5.93;100.00;95795.78;5056692;28;19928;-69
2022/10/22 06:18:33;;;;;;;;;;;;;;;5.93;100.00;95751.84;5062928;28;19928;-69
2022/10/22 06:21:04;;;;;;;;;;;;;;;6.42;100.00;95798.84;5061924;28;20554;-69
2022/10/22 06:23:31;;;;;;;;;;;;;;;6.50;100.00;95798.75;5058824;28;19967;-68
2022/10/22 06:25:58;;;;;;;;;;;;;;;6.56;100.00;95808.38;5057742;28;20023;-69
2022/10/22 06:28:25;;;;;;;;;;;;;;;6.80;100.00;95809.03;5055380;28;19928;-68
2022/10/22 06:30:51;;;;;;;;;;;;;;;6.85;100.00;95806.69;5057665;28;19971;-69
2022/10/22 06:33:18;;;;;;;;;;;;;;;6.99;100.00;95805.84;5057081;28;20027;-69
2022/10/22 06:35:47;;;;;;;;;;;;;;;7.19;100.00;95802.66;5063462;28;20478;-70
2022/10/22 06:38:14;;;;;;;;;;;;;;;7.44;100.00;95810.84;5057954;28;20035;-69
2022/10/22 06:40:42;;;;;;;;;;;;;;;7.40;100.00;95812.19;5060535;28;19964;-69
2022/10/22 06:43:09;;;;;;;;;;;;;;;7.36;100.00;95811.75;5053044;28;19936;-69
2022/10/22 06:45:36;;;;;;;;;;;;;;;7.48;100.00;95804.28;5061513;28;19935;-69
2022/10/22 06:48:03;;;;;;;;;;;;;;;7.71;100.00;95806.66;5058054;28;20019;-70
2022/10/22 06:50:29;;;;;;;;;;;;;;;7.58;100.00;95807.38;5058442;28;19928;-69
2022/10/22 06:52:56;;;;;;;;;;;;;;;7.90;100.00;95804.38;5058970;28;19934;-69
2022/10/22 06:55:23;;;;;;;;;;;;;;;7.87;100.00;95810.75;5062295;28;19937;-69
2022/10/22 06:57:50;;;;;;;;;;;;;;;8.00;100.00;95810.03;5061554;28;20009;-69
2022/10/22 07:00:17;;;;;;;;;;;;;;;7.85;100.00;95808.34;5060589;28;19932;-69
2022/10/22 07:02:43;;;;;;;;;;;;;;;8.00;100.00;95815.22;5067746;28;19943;-70
2022/10/22 07:05:10;;;;;;;;;;;;;;;8.29;100.00;95813.41;5059660;28;20105;-70
2022/10/22 07:07:36;;;;;;;;;;;;;;;8.33;100.00;95817.22;5065528;28;20623;-69
2022/10/22 07:10:03;;;;;;;;;;;;;;;8.33;100.00;95814.59;5063076;28;20629;-69
2022/10/22 07:12:32;;;;;;;;;;;;;;;8.48;100.00;95807.53;5045359;28;20003;-69
2022/10/22 07:14:59;;;;;;;;;;;;;;;8.67;100.00;95800.00;5060499;28;19940;-68
2022/10/22 07:17:25;;;;;;;;;;;;;;;8.65;100.00;95802.00;5062845;28;19927;-69
2022/10/22 07:19:52;;;;;;;;;;;;;;;8.93;100.00;95805.28;5061297;28;19932;-69
2022/10/22 07:22:18;;;;;;;;;;;;;;;9.00;100.00;95800.09;5063510;28;20023;-70
2022/10/22 07:24:45;;;;;;;;;;;;;;;8.92;100.00;95813.28;5064006;28;19985;-68
2022/10/22 07:27:12;;;;;;;;;;;;;;;9.14;100.00;95826.91;5057599;28;20019;-70
2022/10/22 07:29:38;;;;;;;;;;;;;;;9.05;100.00;95822.91;5055998;28;20579;-69
2022/10/22 07:32:05;;;;;;;;;;;;;;;9.08;100.00;95812.13;5060838;28;20023;-67
2022/10/22 07:34:32;;;;;;;;;;;;;;;9.16;100.00;95804.94;5062993;27;19982;-68
2022/10/22 07:36:59;;;;;;;;;;;;;;;9.35;100.00;95813.75;5060382;28;19943;-68
2022/10/22 07:39:25;;;;;;;;;;;;;;;9.36;100.00;95810.16;5066708;27;19981;-68
2022/10/22 07:41:52;;;;;;;;;;;;;;;9.53;100.00;95809.75;5059505;28;19928;-69
2022/10/22 07:44:19;;;;;;;;;;;;;;;9.64;100.00;95800.56;5066669;28;19956;-71
2022/10/22 07:46:45;;;;;;;;;;;;;;;9.85;100.00;95786.50;5061960;28;19933;-74
2022/10/22 07:49:14;;;;;;;;;;;;;;;9.92;100.00;95787.31;5061481;28;19943;-73
2022/10/22 07:51:41;;;;;;;;;;;;;;;10.09;100.00;95780.66;5066066;28;19935;-73
2022/10/22 07:54:08;;;;;;;;;;;;;;;10.32;100.00;95787.25;5064915;28;19987;-74
2022/10/22 07:56:34;;;;;;;;;;;;;;;10.26;100.00;95780.22;5065736;28;20024;-71
2022/10/22 07:59:01;;;;;;;;;;;;;;;10.34;100.00;95785.25;5063993;27;19932;-72
2022/10/22 08:01:28;;;;;;;;;;;;;;;10.60;100.00;95783.53;5068344;28;19929;-71
2022/10/22 08:03:54;;;;;;;;;;;;;;;10.79;100.00;95790.47;5061809;28;19924;-70
2022/10/22 08:06:21;;;;;;;;;;;;;;;10.61;100.00;95788.53;5064399;28;20624;-70
2022/10/22 08:08:49;;;;;;;;;;;;;;;10.71;100.00;95786.31;5063450;28;19932;-71
2022/10/22 08:11:16;;;;;;;;;;;;;;;10.88;100.00;95781.38;5062872;27;19967;-72
2022/10/22 08:13:43;;;;;;;;;;;;;;;11.07;100.00;95768.44;5064264;28;20007;-71
2022/10/22 08:16:11;;;;;;;;;;;;;;;10.91;100.00;95759.31;5066937;28;19929;-71
2022/10/22 08:18:38;;;;;;;;;;;;;;;11.12;100.00;95755.56;5060722;28;19924;-71
2022/10/22 08:21:05;;;;;;;;;;;;;;;11.56;100.00;95766.88;5067192;28;19928;-70
2022/10/22 08:23:33;;;;;;;;;;;;;;;11.86;100.00;95768.81;5068878;28;19928;-69
2022/10/22 08:26:01;;;;;;;;;;;;;;;12.03;100.00;95761.28;5063343;27;19934;-72
2022/10/22 08:28:35;;;;;;;;;;;;;;;12.21;100.00;95763.09;5063069;28;20534;-71
2022/10/22 08:31:06;;;;;;;;;;;;;;;12.29;100.00;95775.84;5059119;27;19938;-72
2022/10/22 08:33:35;;;;;;;;;;;;;;;12.46;100.00;95772.63;5061141;28;19924;-70
2022/10/22 08:36:02;;;;;;;;;;;;;;;12.52;100.00;95763.94;5059107;28;19971;-72
2022/10/22 08:38:30;;;;;;;;;;;;;;;12.42;100.00;95730.47;5072546;28;19920;-72
2022/10/22 08:41:02;;;;;;;;;;;;;;;12.75;100.00;95764.03;5098574;27;20002;-72
2022/10/22 08:43:28;;;;;;;;;;;;;;;12.92;100.00;95763.41;5065128;28;19944;-70
2022/10/22 08:46:18;;;;;;;;;;;;;;;13.11;100.00;95764.97;5063231;27;19932;-69
2022/10/22 08:48:46;;;;;;;;;;;;;;;12.65;100.00;95769.00;5065441;28;20017;-69
2022/10/22 08:51:18;;;;;;;;;;;;;;;12.83;100.00;95770.75;5053069;28;19929;-70
2022/10/22 08:53:52;;;;;;;;;;;;;;;13.03;100.00;95762.66;5067700;28;20050;-70
2022/10/22 08:56:21;;;;;;;;;;;;;;;12.77;100.00;95767.22;5064612;28;20685;-70
2022/10/22 08:59:17;;;;;;;;;;;;;;;12.95;100.00;95758.53;5056921;28;19962;-71
2022/10/22 09:01:47;;;;;;;;;;;;;;;13.07;100.00;95745.50;5067484;28;19928;-70
2022/10/22 09:04:23;;;;;;;;;;;;;;;13.56;99.15;95746.16;5062417;28;19940;-71
2022/10/22 09:06:52;;;;;;;;;;;;;;;13.16;99.13;95744.16;5055430;28;19924;-71
2022/10/22 09:09:20;;;;;;;;;;;;;;;13.20;99.91;95745.28;5062289;28;20021;-69
2022/10/22 09:11:48;;;;;;;;;;;;;;;13.68;97.36;95750.59;5062469;28;20375;-70
2022/10/22 09:14:16;;;;;;;;;;;;;;;13.46;98.04;95748.53;5062211;28;20196;-70
2022/10/22 09:17:10;;;;;;;;;;;;;;;13.86;96.42;95752.31;5062393;28;19963;-69
2022/10/22 09:19:46;;;;;;;;;;;;;;;14.24;94.72;95759.69;5060170;28;19935;-71
2022/10/22 09:22:13;;;;;;;;;;;;;;;14.37;92.44;95748.16;5059343;28;19928;-70
2022/10/22 09:24:45;;;;;;;;;;;;;;;14.27;92.00;95740.88;5060209;28;19955;-71
2022/10/22 09:27:11;;;;;;;;;;;;;;;14.31;92.65;95742.00;5067114;28;19924;-70
2022/10/22 09:29:38;;;;;;;;;;;;;;;14.48;92.33;95733.41;5059909;28;19925;-69
2022/10/22 09:32:05;;;;;;;;;;;;;;;14.66;90.65;95733.25;5061493;28;20015;-69
2022/10/22 09:34:32;;;;;;;;;;;;;;;14.61;90.24;95727.91;5057797;28;20125;-70
2022/10/22 09:37:02;;;;;;;;;;;;;;;15.00;88.93;95728.09;5057720;28;19924;-69
2022/10/22 09:39:35;;;;;;;;;;;;;;;14.95;88.98;95725.38;5053632;28;19920;-71
2022/10/22 09:42:02;;;;;;;;;;;;;;;14.97;88.69;95709.41;5058920;28;20031;-71
2022/10/22 09:44:31;;;;;;;;;;;;;;;14.95;88.04;95707.03;5061061;28;19936;-66
2022/10/22 09:47:05;;;;;;;;;;;;;;;15.31;85.40;95712.84;5061955;28;19951;-67
2022/10/22 09:49:32;;;;;;;;;;;;;;;15.47;85.65;95717.28;5053715;28;19939;-68
2022/10/22 09:51:59;;;;;;;;;;;;;;;15.33;84.61;95710.78;5057776;28;19935;-66
2022/10/22 09:54:32;;;;;;;;;;;;;;;15.53;84.73;95712.91;5050049;28;20626;-67
2022/10/22 09:57:04;;;;;;;;;;;;;;;15.74;82.07;95700.91;5053312;28;19967;-64
2022/10/22 09:59:36;;;;;;;;;;;;;;;15.97;82.91;95706.97;5055866;28;19927;-72
2022/10/22 10:02:13;;;;;;;;;;;;;;;15.80;81.41;95707.81;5053073;28;20814;-73
2022/10/22 10:05:01;;;;;;;;;;;;;;;15.98;80.97;95698.06;5054524;28;19925;-67
2022/10/22 10:07:31;;;;;;;;;;;;;;;16.27;79.70;95690.00;5055633;28;19932;-71
2022/10/22 10:09:58;;;;;;;;;;;;;;;16.25;78.87;95688.41;5059322;28;19931;-68
2022/10/22 10:12:44;;;;;;;;;;;;;;;16.09;78.98;95684.00;5054097;28;19929;-67
2022/10/22 10:15:30;;;;;;;;;;;;;;;16.47;77.11;95679.69;5057878;28;19928;-71
2022/10/22 10:17:57;;;;;;;;;;;;;;;16.66;79.26;95684.63;5055138;28;19928;-70
2022/10/22 10:20:27;;;;;;;;;;;;;;;16.59;78.65;95688.25;5057910;28;20055;-70
2022/10/22 10:22:59;;;;;;;;;;;;;;;16.61;78.16;95680.91;5053809;28;19963;-71
2022/10/22 10:25:45;;;;;;;;;;;;;;;17.02;80.09;95671.84;5055177;28;20674;-72
2022/10/22 10:28:16;;;;;;;;;;;;;;;17.36;75.01;95665.25;5055111;28;20631;-69
2022/10/22 10:30:55;;;;;;;;;;;;;;;16.93;74.07;95669.66;5059471;28;19932;-69
2022/10/22 10:33:21;;;;;;;;;;;;;;;17.05;74.01;95660.78;5052165;28;19932;-69
2022/10/22 10:36:01;;;;;;;;;;;;;;;17.36;72.73;95646.81;5059612;28;20701;-69
2022/10/22 10:38:31;;;;;;;;;;;;;;;17.63;71.26;95638.03;5050089;28;19932;-69
2022/10/22 10:41:03;;;;;;;;;;;;;;;17.65;70.57;95641.19;5056103;28;20011;-69
2022/10/22 10:43:36;;;;;;;;;;;;;;;17.42;70.84;95636.31;5052449;28;19944;-69
2022/10/22 10:46:09;;;;;;;;;;;;;;;17.84;70.32;95638.91;5064171;28;19931;-74
2022/10/22 10:48:36;;;;;;;;;;;;;;;18.17;68.64;95641.44;5060525;27;19935;-75
2022/10/22 10:51:21;;;;;;;;;;;;;;;18.21;67.83;95639.88;5062870;28;19931;-69
2022/10/22 10:53:50;;;;;;;;;;;;;;;18.12;68.57;95639.59;5063007;27;19928;-68
2022/10/22 10:56:52;;;;;;;;;;;;;;;18.39;68.39;95638.63;5063814;28;19932;-68
2022/10/22 10:59:19;;;;;;;;;;;;;;;18.41;67.19;95632.00;5033983;28;20014;-67
2022/10/22 11:01:55;;;;;;;;;;;;;;;18.28;65.50;95627.25;5061510;28;19932;-67
2022/10/22 11:04:33;;;;;;;;;;;;;;;18.29;66.93;95618.25;5062233;28;19933;-67
2022/10/22 11:07:02;;;;;;;;;;;;;;;18.70;64.95;95615.69;5066901;28;19935;-67
2022/10/22 11:09:41;;;;;;;;;;;;;;;19.09;62.69;95599.38;5060002;28;20017;-67
2022/10/22 11:12:15;;;;;;;;;;;;;;;19.36;61.97;95593.78;5067427;28;19985;-68
2022/10/22 11:14:50;;;;;;;;;;;;;;;19.56;60.07;95606.16;5061259;28;19928;-68
2022/10/22 11:17:19;;;;;;;;;;;;;;;19.13;60.25;95589.84;5063932;28;19951;-67
2022/10/22 11:20:01;;;;;;;;;;;;;;;19.58;58.97;95590.81;5063074;28;19990;-67
2022/10/22 11:22:47;;;;;;;;;;;;;;;19.83;58.70;95589.19;5065506;28;19959;-72
2022/10/22 11:25:39;;;;;;;;;;;;;;;19.97;57.76;95587.53;5066416;28;20033;-72
2022/10/22 11:28:25;;;;;;;;;;;;;;;19.90;56.71;95576.47;5073928;28;19932;-72
2022/10/22 11:31:02;;;;;;;;;;;;;;;20.22;55.21;95567.28;5070207;28;20024;-72
2022/10/22 11:33:38;;;;;;;;;;;;;;;20.20;53.40;95569.41;5073366;28;19964;-73
2022/10/22 11:36:06;;;;;;;;;;;;;;;20.27;53.52;95564.59;5067169;28;19949;-73
2022/10/22 11:38:34;;;;;;;;;;;;;;;20.23;54.13;95563.59;5074746;28;20023;-73
2022/10/22 11:41:04;;;;;;;;;;;;;;;19.84;53.82;95551.09;5069375;28;19929;-72
2022/10/22 11:43:51;;;;;;;;;;;;;;;20.33;53.37;95552.94;5068769;28;19958;-73
2022/10/22 11:46:17;;;;;;;;;;;;;;;20.67;51.37;95546.09;5072886;28;19931;-74
2022/10/22 11:48:59;;;;;;;;;;;;;;;21.24;51.59;95538.44;5071736;28;19928;-74
2022/10/22 11:51:36;;;;;;;;;;;;;;;21.67;49.14;95541.16;5100912;27;19932;-73
2022/10/22 11:54:21;;;;;;;;;;;;;;;21.87;48.82;95530.28;5056092;28;20683;-71
2022/10/22 11:56:51;;;;;;;;;;;;;;;21.61;48.28;95526.38;5058882;28;19931;-71
2022/10/22 11:59:33;;;;;;;;;;;;;;;21.29;47.42;95541.03;5054831;28;19932;-73
2022/10/22 12:02:00;;;;;;;;;;;;;;;20.91;48.43;95535.59;5061670;28;19935;-77
2022/10/22 12:04:41;;;;;;;;;;;;;;;21.04;49.53;95529.63;5057055;28;19929;-75
2022/10/22 12:07:28;;;;;;;;;;;;;;;21.76;46.86;95526.22;5058318;28;19936;-75
2022/10/22 12:09:56;;;;;;;;;;;;;;;22.69;44.75;95526.47;5054575;28;19925;-76
2022/10/22 12:12:23;;;;;;;;;;;;;;;22.35;44.66;95528.63;5057015;28;19932;-77
2022/10/22 12:14:55;;;;;;;;;;;;;;;22.47;44.49;95510.38;5044431;28;19928;-79
2022/10/22 12:17:22;;;;;;;;;;;;;;;23.08;43.14;95513.88;5061148;28;20028;-78
2022/10/22 12:20:10;;;;;;;;;;;;;;;22.76;41.76;95512.03;5059961;28;20065;-74
2022/10/22 12:22:37;;;;;;;;;;;;;;;23.43;40.25;95516.97;5062310;28;19973;-76
2022/10/22 12:25:18;;;;;;;;;;;;;;;24.51;38.00;95515.47;5041384;28;20727;-75
2022/10/22 12:27:49;;;;;;;;;;;;;;;24.30;37.31;95514.38;5091684;27;20489;-76
2022/10/22 12:30:18;;;;;;;;;;;;;;;25.03;35.97;95514.22;5062411;28;19933;-75
2022/10/22 12:32:45;;;;;;;;;;;;;;;25.89;34.33;95520.94;5057047;28;19932;-75
2022/10/22 12:35:16;;;;;;;;;;;;;;;26.69;32.02;95528.72;5044352;28;20029;-75
2022/10/22 12:37:43;;;;;;;;;;;;;;;27.48;30.87;95521.25;5057238;28;19956;-74
2022/10/22 12:40:19;;;;;;;;;;;;;;;28.46;29.36;95520.31;5058844;28;19924;-69
2022/10/22 12:42:49;;;;;;;;;;;;;;;28.42;28.48;95512.91;5058621;28;19950;-69
2022/10/22 12:45:16;;;;;;;;;;;;;;;28.32;28.94;95513.31;5059633;28;19967;-75
2022/10/22 12:47:50;;;;;;;;;;;;;;;28.47;28.24;95516.50;5085933;27;20690;-76
2022/10/22 12:50:18;;;;;;;;;;;;;;;28.95;26.30;95520.47;5054675;28;20080;-75
2022/10/22 12:52:46;;;;;;;;;;;;;;;29.11;26.20;95510.69;5082281;27;19932;-78
2022/10/22 12:55:21;;;;;;;;;;;;;;;30.54;24.64;95508.09;5040900;28;19962;-73
2022/10/22 12:57:48;;;;;;;;;;;;;;;30.19;25.26;95500.56;5054790;28;19986;-70
2022/10/22 13:00:34;;;;;;;;;;;;;;;30.27;25.36;95486.25;5056148;28;20009;-71